Time;durP1;ratioP1;P1;durP2;ratioP2;P2;SDS_P1;SDS_P2;PMS_P1;PMS_P2;Temp;Humidity;BMP_temperature;BMP_pressure;BME280_temperature;BME280_humidity;BME280_pressure;Samples;Min_cycle;Max_cycle;Signal;HPM_P1;HPM_P2
2023/10/30 00:04:20;;;;;;;;;;;;;;;12.90;100.00;98087.63;7251993;39;20068;31
2023/10/30 00:09:56;;;;;;;;;;;;;;;12.89;100.00;98077.88;7226981;40;19993;31
2023/10/30 00:15:17;;;;;;;;;;;;;;;12.89;100.00;98095.97;7266767;40;20303;31
2023/10/30 00:20:38;;;;;;;;;;;;;;;12.86;100.00;98101.78;7270854;40;20082;31
2023/10/30 00:26:14;;;;;;;;;;;;;;;12.87;100.00;98125.09;7306353;39;19992;31
2023/10/30 00:31:36;;;;;;;;;;;;;;;12.77;100.00;98117.38;7245961;40;20560;31
2023/10/30 00:37:12;;;;;;;;;;;;;;;12.76;100.00;98110.34;7270356;40;20016;31
2023/10/30 00:42:47;;;;;;;;;;;;;;;12.74;99.75;98108.84;7279195;40;20521;31
2023/10/30 00:48:07;;;;;;;;;;;;;;;12.71;99.05;98125.50;7228147;40;20486;31
2023/10/30 00:53:28;;;;;;;;;;;;;;;12.71;100.00;98120.09;7287156;39;20378;31
2023/10/30 00:59:02;;;;;;;;;;;;;;;12.74;100.00;98134.03;7271406;40;20327;31
2023/10/30 01:04:22;;;;;;;;;;;;;;;12.75;100.00;98134.84;7222895;40;20458;31
2023/10/30 01:09:43;;;;;;;;;;;;;;;12.74;100.00;98111.56;7246376;40;20549;31
2023/10/30 01:15:19;;;;;;;;;;;;;;;12.79;100.00;98112.59;7244278;40;20016;31
2023/10/30 01:20:55;;;;;;;;;;;;;;;12.78;100.00;98110.94;7283723;39;20368;31
2023/10/30 01:26:29;;;;;;;;;;;;;;;12.75;100.00;98110.53;7275751;40;20449;31
2023/10/30 01:32:05;;;;;;;;;;;;;;;12.78;100.00;98100.12;7202868;40;20566;31
2023/10/30 01:37:25;;;;;;;;;;;;;;;12.79;100.00;98079.31;7212370;40;20466;31
2023/10/30 01:43:01;;;;;;;;;;;;;;;12.74;100.00;98085.34;7220067;40;20542;31
2023/10/30 01:48:37;;;;;;;;;;;;;;;12.68;100.00;98088.87;7239031;40;19993;31
2023/10/30 01:54:12;;;;;;;;;;;;;;;12.61;100.00;98099.69;7248486;40;21193;31
2023/10/30 01:59:47;;;;;;;;;;;;;;;12.59;100.00;98096.34;7217939;40;19993;31
2023/10/30 02:05:21;;;;;;;;;;;;;;;12.58;100.00;98099.28;7228403;40;20020;31
2023/10/30 02:10:42;;;;;;;;;;;;;;;12.52;100.00;98095.53;7219777;40;20103;31
2023/10/30 02:16:03;;;;;;;;;;;;;;;12.45;100.00;98100.09;7227672;40;20021;31
2023/10/30 02:21:39;;;;;;;;;;;;;;;12.43;100.00;98098.62;7241346;40;19992;31
2023/10/30 02:27:15;;;;;;;;;;;;;;;12.43;100.00;98091.34;7264449;40;19992;31
2023/10/30 02:32:50;;;;;;;;;;;;;;;12.42;100.00;98069.94;7238748;40;20025;31
2023/10/30 02:38:11;;;;;;;;;;;;;;;12.44;100.00;98063.31;7257916;40;19993;31
2023/10/30 02:43:47;;;;;;;;;;;;;;;12.47;100.00;98059.34;7230355;40;20008;31
2023/10/30 02:49:08;;;;;;;;;;;;;;;12.42;100.00;98046.44;7246072;40;20056;31
2023/10/30 02:54:28;;;;;;;;;;;;;;;12.43;100.00;98037.31;7261571;40;19992;31
2023/10/30 03:05:24;;;;;;;;;;;;;;;12.42;100.00;98054.56;7199114;40;19993;31
2023/10/30 03:10:58;;;;;;;;;;;;;;;12.44;100.00;98043.53;7280258;40;19993;31
2023/10/30 03:16:35;;;;;;;;;;;;;;;12.47;100.00;98029.59;7333721;39;20007;31
2023/10/30 03:21:56;;;;;;;;;;;;;;;12.46;100.00;98026.06;7261782;40;21204;31
2023/10/30 03:27:16;;;;;;;;;;;;;;;12.47;100.00;98027.75;7297764;40;20011;31
2023/10/30 03:32:52;;;;;;;;;;;;;;;12.46;100.00;98034.19;7239128;40;19993;31
2023/10/30 03:38:14;;;;;;;;;;;;;;;12.46;100.00;98031.47;7269518;39;19992;31
2023/10/30 03:43:32;;;;;;;;;;;;;;;12.41;100.00;98022.34;7296414;39;19992;31
2023/10/30 03:49:08;;;;;;;;;;;;;;;12.40;100.00;98045.84;7291030;39;19993;31
2023/10/30 03:54:29;;;;;;;;;;;;;;;12.40;100.00;98031.50;7333877;39;19995;31
2023/10/30 04:05:09;;;;;;;;;;;;;;;12.34;100.00;98022.31;7317946;39;20026;31
2023/10/30 04:15:51;;;;;;;;;;;;;;;12.35;100.00;98033.97;7314570;39;20019;31
2023/10/30 04:21:28;;;;;;;;;;;;;;;12.35;100.00;98032.09;7319458;39;19992;31
2023/10/30 04:26:49;;;;;;;;;;;;;;;12.30;100.00;98031.88;7274369;40;19992;31
2023/10/30 04:32:09;;;;;;;;;;;;;;;12.30;100.00;98025.66;7281713;40;21267;31
2023/10/30 04:42:49;;;;;;;;;;;;;;;12.29;100.00;98007.78;7297699;39;20105;31
2023/10/30 04:53:13;;;;;;;;;;;;;;;12.23;100.00;97997.81;7363798;39;19994;31
2023/10/30 04:58:49;;;;;;;;;;;;;;;12.20;100.00;98020.66;7337166;39;19996;31
2023/10/30 05:04:10;;;;;;;;;;;;;;;12.20;100.00;98009.84;7306835;39;20007;31
2023/10/30 05:09:45;;;;;;;;;;;;;;;12.24;100.00;98010.28;7317377;39;20033;31
2023/10/30 05:15:22;;;;;;;;;;;;;;;12.29;100.00;98029.38;7319985;39;20133;31
2023/10/30 05:20:57;;;;;;;;;;;;;;;12.32;100.00;98040.63;7277726;40;20033;31
2023/10/30 05:26:18;;;;;;;;;;;;;;;12.31;100.00;98047.06;7257591;40;19992;31
2023/10/30 05:31:54;;;;;;;;;;;;;;;12.32;100.00;98050.59;7243522;40;20139;31
2023/10/30 05:37:30;;;;;;;;;;;;;;;12.35;100.00;98061.00;7247822;40;20062;31
2023/10/30 05:42:50;;;;;;;;;;;;;;;12.34;100.00;98057.47;7194663;40;19994;31
2023/10/30 05:53:30;;;;;;;;;;;;;;;12.42;100.00;98021.28;7235905;40;20031;31
2023/10/30 05:59:05;;;;;;;;;;;;;;;12.45;100.00;98050.63;7244489;40;20016;31
2023/10/30 06:04:41;;;;;;;;;;;;;;;12.38;100.00;98077.63;7258220;40;19993;31
2023/10/30 06:10:19;;;;;;;;;;;;;;;12.42;100.00;98035.63;7259313;40;19997;31
2023/10/30 06:15:54;;;;;;;;;;;;;;;12.46;100.00;98026.06;7178537;40;19999;31
2023/10/30 06:21:30;;;;;;;;;;;;;;;12.51;100.00;98012.78;7173944;40;20169;31
2023/10/30 06:27:02;;;;;;;;;;;;;;;12.55;100.00;97995.09;6965217;40;21002;31
2023/10/30 06:32:23;;;;;;;;;;;;;;;12.57;100.00;97976.81;7166451;40;20008;31
2023/10/30 06:37:43;;;;;;;;;;;;;;;12.59;100.00;97999.03;7195727;40;20045;31
2023/10/30 06:43:19;;;;;;;;;;;;;;;12.63;100.00;98013.84;7221207;40;20061;31
2023/10/30 06:48:54;;;;;;;;;;;;;;;12.65;100.00;98044.19;7251551;39;19996;31
2023/10/30 06:59:35;;;;;;;;;;;;;;;12.64;100.00;98034.41;7265810;40;20012;31
2023/10/30 07:10:01;;;;;;;;;;;;;;;12.65;100.00;98019.00;7316478;39;20010;31
2023/10/30 07:15:38;;;;;;;;;;;;;;;12.64;100.00;98018.19;7318288;39;20010;31
2023/10/30 07:21:14;;;;;;;;;;;;;;;12.65;100.00;98016.31;7309756;39;20007;31
2023/10/30 07:26:35;;;;;;;;;;;;;;;12.57;100.00;98009.25;7276068;40;19992;31
2023/10/30 07:32:11;;;;;;;;;;;;;;;12.60;100.00;98022.34;7237975;40;20134;31
2023/10/30 07:37:47;;;;;;;;;;;;;;;12.55;100.00;98070.78;7250618;40;19994;31
2023/10/30 07:43:23;;;;;;;;;;;;;;;12.62;100.00;98092.44;7263687;39;19991;31
2023/10/30 07:49:00;;;;;;;;;;;;;;;12.67;100.00;98108.03;7246755;40;20012;31
2023/10/30 07:54:36;;;;;;;;;;;;;;;12.72;100.00;98128.00;7245757;40;19993;31
2023/10/30 07:59:56;;;;;;;;;;;;;;;12.75;100.00;98088.91;7277276;39;19997;31
2023/10/30 08:10:37;;;;;;;;;;;;;;;12.84;100.00;98036.28;7256130;40;20233;31
2023/10/30 08:16:13;;;;;;;;;;;;;;;12.88;100.00;98008.59;7227170;40;19992;31
2023/10/30 08:21:48;;;;;;;;;;;;;;;13.02;100.00;98012.94;7243794;40;20012;31
2023/10/30 08:27:25;;;;;;;;;;;;;;;13.10;100.00;98014.59;7262613;39;19997;31
2023/10/30 08:32:46;;;;;;;;;;;;;;;13.18;100.00;98024.38;7256848;40;19992;31
2023/10/30 08:38:06;;;;;;;;;;;;;;;13.25;100.00;98039.53;7248193;40;20574;31
2023/10/30 08:43:42;;;;;;;;;;;;;;;13.34;100.00;98016.63;7265835;40;20008;31
2023/10/30 08:49:04;;;;;;;;;;;;;;;13.38;100.00;98020.56;7234378;40;20212;31
2023/10/30 08:54:23;;;;;;;;;;;;;;;13.47;100.00;98013.88;7263412;39;20018;31
2023/10/30 09:00:00;;;;;;;;;;;;;;;13.59;100.00;98002.38;7232375;40;20093;31
2023/10/30 09:05:22;;;;;;;;;;;;;;;13.62;100.00;97988.41;7271730;39;21202;31
2023/10/30 09:10:42;;;;;;;;;;;;;;;13.68;100.00;97968.59;7255855;39;19993;31
2023/10/30 09:16:19;;;;;;;;;;;;;;;13.68;100.00;97963.19;7289417;39;19992;31
2023/10/30 09:21:39;;;;;;;;;;;;;;;13.84;100.00;97954.53;7281043;39;20161;31
2023/10/30 09:27:13;;;;;;;;;;;;;;;13.88;100.00;97966.59;7290298;39;19996;31
2023/10/30 09:32:50;;;;;;;;;;;;;;;13.92;100.00;97946.16;7240726;40;20051;31
2023/10/30 09:38:12;;;;;;;;;;;;;;;13.93;100.00;97923.44;7249155;40;20003;31
2023/10/30 09:43:46;;;;;;;;;;;;;;;13.89;100.00;97938.47;7238591;40;20074;31
2023/10/30 09:49:24;;;;;;;;;;;;;;;13.89;100.00;97944.72;7286863;39;20007;31
2023/10/30 10:00:05;;;;;;;;;;;;;;;13.99;100.00;97938.81;7257732;40;20004;31
2023/10/30 10:10:44;;;;;;;;;;;;;;;14.04;100.00;97933.56;7295520;39;20008;31
2023/10/30 10:21:23;;;;;;;;;;;;;;;13.98;100.00;97918.19;7289965;39;20007;31
2023/10/30 10:32:04;;;;;;;;;;;;;;;14.08;100.00;97896.03;7345367;39;20007;31
2023/10/30 10:42:44;;;;;;;;;;;;;;;14.14;100.00;97879.72;7302134;39;20003;31
2023/10/30 10:53:25;;;;;;;;;;;;;;;14.24;100.00;97852.09;7284246;39;20342;31
2023/10/30 11:04:03;;;;;;;;;;;;;;;14.36;100.00;97825.94;7282048;39;20113;31
2023/10/30 11:09:41;;;;;;;;;;;;;;;14.34;100.00;97809.06;7296809;39;20419;31
2023/10/30 11:15:16;;;;;;;;;;;;;;;14.34;100.00;97809.91;7259712;40;20083;31
2023/10/30 11:20:36;;;;;;;;;;;;;;;14.38;100.00;97792.16;7257475;40;20410;31
2023/10/30 11:26:13;;;;;;;;;;;;;;;14.39;100.00;97780.25;7286485;39;20568;31
2023/10/30 11:36:53;;;;;;;;;;;;;;;14.39;100.00;97763.97;7299775;39;20023;31
2023/10/30 11:42:43;;;;;;;;;;;;;;;14.39;100.00;97747.72;7316748;39;20027;31
2023/10/30 11:48:19;;;;;;;;;;;;;;;14.38;100.00;97747.97;7292592;39;20002;31
2023/10/30 11:53:55;;;;;;;;;;;;;;;14.33;100.00;97735.03;7300262;39;20394;31
2023/10/30 11:59:33;;;;;;;;;;;;;;;14.35;100.00;97723.97;7207165;40;20025;31
2023/10/30 12:04:53;;;;;;;;;;;;;;;14.37;100.00;97709.16;7248594;39;20413;31
2023/10/30 12:10:13;;;;;;;;;;;;;;;14.46;100.00;97692.59;7277599;39;20077;31
2023/10/30 12:15:52;;;;;;;;;;;;;;;14.48;100.00;97698.63;7298494;39;19992;31
2023/10/30 12:21:26;;;;;;;;;;;;;;;14.53;100.00;97693.31;7258843;40;20008;31
2023/10/30 12:27:02;;;;;;;;;;;;;;;14.59;100.00;97681.56;7206242;40;20064;31
2023/10/30 12:32:39;;;;;;;;;;;;;;;14.65;100.00;97661.69;7236730;40;19992;31
2023/10/30 12:38:00;;;;;;;;;;;;;;;14.66;100.00;97633.47;7274612;40;20105;31
2023/10/30 12:43:21;;;;;;;;;;;;;;;14.67;100.00;97624.31;7318522;39;19993;31
2023/10/30 12:48:56;;;;;;;;;;;;;;;14.66;100.00;97622.63;7292477;39;19992;31
2023/10/30 12:54:16;;;;;;;;;;;;;;;14.70;100.00;97599.44;7264592;40;20557;31
2023/10/30 13:04:57;;;;;;;;;;;;;;;14.69;100.00;97568.78;7263164;40;20004;31
2023/10/30 13:10:17;;;;;;;;;;;;;;;14.75;100.00;97550.72;7223637;40;20011;31
2023/10/30 13:15:37;;;;;;;;;;;;;;;14.76;100.00;97550.50;7300828;39;19991;31
2023/10/30 13:21:13;;;;;;;;;;;;;;;14.77;100.00;97551.34;7300049;39;20007;31
2023/10/30 13:26:34;;;;;;;;;;;;;;;14.82;100.00;97557.72;7295551;39;20007;31
2023/10/30 13:31:56;;;;;;;;;;;;;;;14.85;100.00;97568.09;7327467;39;19995;31
2023/10/30 13:37:32;;;;;;;;;;;;;;;14.79;100.00;97541.06;7298260;39;19992;31
2023/10/30 13:42:50;;;;;;;;;;;;;;;14.77;100.00;97554.06;7089296;39;20951;31
2023/10/30 13:48:26;;;;;;;;;;;;;;;14.79;100.00;97541.06;7339780;39;19991;31
2023/10/30 13:54:03;;;;;;;;;;;;;;;14.82;100.00;97513.50;7260290;39;20087;31
2023/10/30 13:59:23;;;;;;;;;;;;;;;14.74;100.00;97492.94;7299189;39;19992;31
2023/10/30 14:04:44;;;;;;;;;;;;;;;14.74;100.00;97473.97;7300109;39;20115;31
2023/10/30 14:10:19;;;;;;;;;;;;;;;14.67;100.00;97477.84;7278480;39;19993;31
2023/10/30 14:15:40;;;;;;;;;;;;;;;14.65;100.00;97480.81;7283885;40;21139;31
2023/10/30 14:21:01;;;;;;;;;;;;;;;14.72;100.00;97483.41;7267300;39;19993;31
2023/10/30 14:26:34;;;;;;;;;;;;;;;14.68;100.00;97484.94;7271658;40;20004;31
2023/10/30 14:31:55;;;;;;;;;;;;;;;14.71;100.00;97482.56;7295325;39;20114;31
2023/10/30 14:37:15;;;;;;;;;;;;;;;14.76;100.00;97479.16;7293074;39;19991;31
2023/10/30 14:42:51;;;;;;;;;;;;;;;14.71;100.00;97468.19;7286077;39;20050;31
2023/10/30 14:48:11;;;;;;;;;;;;;;;14.69;100.00;97459.47;7267027;39;21110;31
2023/10/30 14:53:47;;;;;;;;;;;;;;;14.67;100.00;97457.00;7308515;39;20063;31
2023/10/30 14:59:23;;;;;;;;;;;;;;;14.72;100.00;97464.41;7325982;39;20080;31
2023/10/30 15:04:43;;;;;;;;;;;;;;;14.70;100.00;97467.34;7276870;39;20020;31
2023/10/30 15:10:18;;;;;;;;;;;;;;;14.72;100.00;97469.84;7278581;40;20026;31
2023/10/30 15:15:54;;;;;;;;;;;;;;;14.73;100.00;97466.06;7178094;40;20022;31
2023/10/30 15:21:29;;;;;;;;;;;;;;;14.73;100.00;97468.78;7206092;40;20020;31
2023/10/30 15:27:05;;;;;;;;;;;;;;;14.66;100.00;97454.50;7178892;40;20096;31
2023/10/30 15:32:41;;;;;;;;;;;;;;;14.64;100.00;97440.37;7218774;40;19997;31
2023/10/30 15:43:21;;;;;;;;;;;;;;;14.47;100.00;97418.56;7238335;40;20009;31
2023/10/30 15:48:58;;;;;;;;;;;;;;;14.48;100.00;97406.62;7218944;40;20005;31
2023/10/30 15:54:33;;;;;;;;;;;;;;;14.50;100.00;97401.00;7173711;40;20158;31
2023/10/30 15:59:55;;;;;;;;;;;;;;;14.50;100.00;97412.66;7203858;40;19993;31
2023/10/30 16:05:32;;;;;;;;;;;;;;;14.50;100.00;97411.84;7262608;39;19991;31
2023/10/30 16:10:54;;;;;;;;;;;;;;;14.49;100.00;97423.72;7259927;39;20085;31
2023/10/30 16:16:28;;;;;;;;;;;;;;;14.46;100.00;97446.72;7231055;40;19994;31
2023/10/30 16:22:05;;;;;;;;;;;;;;;14.38;100.00;97438.94;7273626;39;19997;31
2023/10/30 16:27:26;;;;;;;;;;;;;;;14.33;100.00;97452.34;7286887;40;20010;31
2023/10/30 16:33:00;;;;;;;;;;;;;;;14.32;100.00;97442.53;7280487;40;19992;31
2023/10/30 16:38:43;;;;;;;;;;;;;;;14.31;100.00;97440.87;7320467;40;20001;31
2023/10/30 16:44:04;;;;;;;;;;;;;;;14.24;100.00;97441.00;7258615;40;19992;31
2023/10/30 16:49:24;;;;;;;;;;;;;;;14.23;100.00;97439.34;7236410;40;20034;31
2023/10/30 16:55:00;;;;;;;;;;;;;;;14.23;100.00;97449.34;7205203;40;19994;31
2023/10/30 17:00:20;;;;;;;;;;;;;;;14.24;100.00;97445.59;7268622;39;20007;31
2023/10/30 17:11:04;;;;;;;;;;;;;;;14.27;100.00;97413.44;7361803;39;20861;31
2023/10/30 17:16:25;;;;;;;;;;;;;;;14.25;100.00;97412.03;7297308;39;19992;31
2023/10/30 17:22:00;;;;;;;;;;;;;;;14.21;100.00;97446.91;7303051;39;20045;31
2023/10/30 17:27:37;;;;;;;;;;;;;;;14.25;100.00;97452.66;7276892;40;20073;31
2023/10/30 17:32:57;;;;;;;;;;;;;;;14.27;100.00;97450.53;7227949;40;19992;31
2023/10/30 17:38:17;;;;;;;;;;;;;;;14.30;100.00;97455.50;7229028;40;19994;31
2023/10/30 17:43:54;;;;;;;;;;;;;;;14.32;100.00;97461.50;7205907;40;20001;31
2023/10/30 17:54:18;;;;;;;;;;;;;;;14.31;100.00;97457.97;7280189;39;20008;31
2023/10/30 17:59:54;;;;;;;;;;;;;;;14.32;100.00;97439.84;7310887;39;21197;31
2023/10/30 18:10:19;;;;;;;;;;;;;;;14.30;100.00;97460.94;7316384;39;20008;31
2023/10/30 18:15:56;;;;;;;;;;;;;;;14.22;100.00;97461.25;7258440;40;20004;31
2023/10/30 18:26:36;;;;;;;;;;;;;;;14.21;100.00;97455.03;7281688;39;20024;31
2023/10/30 18:37:17;;;;;;;;;;;;;;;14.22;100.00;97459.38;7245716;40;19996;31
2023/10/30 18:42:53;;;;;;;;;;;;;;;14.18;100.00;97454.66;7299236;39;20003;31
2023/10/30 18:48:29;;;;;;;;;;;;;;;14.15;100.00;97455.94;7277354;39;19996;31
2023/10/30 18:54:05;;;;;;;;;;;;;;;14.06;100.00;97446.50;7276184;40;19992;31
2023/10/30 18:59:25;;;;;;;;;;;;;;;14.06;100.00;97446.50;7242509;40;19997;31
2023/10/30 19:05:00;;;;;;;;;;;;;;;14.06;100.00;97449.22;7276844;39;20003;31
2023/10/30 19:10:37;;;;;;;;;;;;;;;14.04;100.00;97447.81;7257002;40;20016;31
2023/10/30 19:15:58;;;;;;;;;;;;;;;14.00;100.00;97434.69;7227354;40;21153;31
2023/10/30 19:21:32;;;;;;;;;;;;;;;14.01;100.00;97440.94;7277140;40;20101;31
2023/10/30 19:27:09;;;;;;;;;;;;;;;13.96;100.00;97438.09;7250886;40;19994;31
2023/10/30 19:32:46;;;;;;;;;;;;;;;13.94;100.00;97434.81;7320987;39;19992;31
2023/10/30 19:38:23;;;;;;;;;;;;;;;13.92;100.00;97421.50;7303364;39;20091;31
2023/10/30 19:43:59;;;;;;;;;;;;;;;13.90;100.00;97422.78;7248720;39;20008;31
2023/10/30 19:49:19;;;;;;;;;;;;;;;13.87;100.00;97418.63;7231024;40;19994;31
2023/10/30 19:54:40;;;;;;;;;;;;;;;13.91;100.00;97421.72;7262099;39;20354;31
2023/10/30 20:00:17;;;;;;;;;;;;;;;13.91;100.00;97411.69;7258784;40;20087;31
2023/10/30 20:05:37;;;;;;;;;;;;;;;13.94;100.00;97405.84;7298144;39;20007;31
2023/10/30 20:10:57;;;;;;;;;;;;;;;13.97;100.00;97404.53;7259610;40;20401;31
2023/10/30 20:16:33;;;;;;;;;;;;;;;13.96;100.00;97419.13;7238352;40;21082;31
2023/10/30 20:21:53;;;;;;;;;;;;;;;13.85;100.00;97436.19;7209815;40;20021;31
2023/10/30 20:27:13;;;;;;;;;;;;;;;13.85;100.00;97430.78;7266398;39;19997;31
2023/10/30 20:32:49;;;;;;;;;;;;;;;13.82;100.00;97432.03;7297750;39;20020;31
2023/10/30 20:43:14;;;;;;;;;;;;;;;13.73;100.00;97427.22;7294943;39;20007;31
2023/10/30 20:48:50;;;;;;;;;;;;;;;13.68;100.00;97425.19;7338369;39;20376;31
2023/10/30 20:59:15;;;;;;;;;;;;;;;13.61;100.00;97440.69;7261394;40;19997;31
2023/10/30 21:09:56;;;;;;;;;;;;;;;13.57;100.00;97422.41;7274202;39;20004;31
2023/10/30 21:15:16;;;;;;;;;;;;;;;13.56;100.00;97437.81;7297879;39;20327;31
2023/10/30 21:20:34;;;;;;;;;;;;;;;13.52;100.00;97432.06;7112190;39;20041;31
2023/10/30 21:26:10;;;;;;;;;;;;;;;13.49;100.00;97443.34;7276340;40;20015;31
2023/10/30 21:31:46;;;;;;;;;;;;;;;13.45;100.00;97431.31;7219390;40;20080;31
2023/10/30 21:37:22;;;;;;;;;;;;;;;13.47;100.00;97447.34;7233905;39;20020;31
2023/10/30 21:42:57;;;;;;;;;;;;;;;13.44;100.00;97436.94;7228416;40;19993;31
2023/10/30 21:48:32;;;;;;;;;;;;;;;13.39;100.00;97432.22;7207688;40;19994;31
2023/10/30 21:54:07;;;;;;;;;;;;;;;13.38;100.00;97446.81;7181354;40;20100;31
2023/10/30 21:59:43;;;;;;;;;;;;;;;13.37;99.93;97447.87;7171725;40;19993;31
2023/10/30 22:05:04;;;;;;;;;;;;;;;13.35;100.00;97447.25;7230308;40;20058;31
2023/10/30 22:10:40;;;;;;;;;;;;;;;13.36;99.95;97459.75;7246093;40;19993;31
2023/10/30 22:16:22;;;;;;;;;;;;;;;13.36;99.90;97457.03;7329498;40;19997;31
2023/10/30 22:21:43;;;;;;;;;;;;;;;13.35;99.55;97474.31;7228768;40;21116;31
2023/10/30 22:27:04;;;;;;;;;;;;;;;13.35;99.25;97490.56;7277228;39;20006;31
2023/10/30 22:32:36;;;;;;;;;;;;;;;13.32;98.48;97514.56;7249846;40;20116;31
2023/10/30 22:37:56;;;;;;;;;;;;;;;13.28;98.64;97516.87;7219841;39;21021;31
2023/10/30 22:43:31;;;;;;;;;;;;;;;13.26;97.54;97532.50;7262312;39;20117;31
2023/10/30 22:49:07;;;;;;;;;;;;;;;13.23;97.11;97541.06;7246641;40;20083;31
2023/10/30 22:54:28;;;;;;;;;;;;;;;13.21;97.09;97558.59;7227705;40;19993;31
2023/10/30 22:59:49;;;;;;;;;;;;;;;13.16;96.34;97561.97;7253587;40;20000;31
2023/10/30 23:05:25;;;;;;;;;;;;;;;13.08;95.39;97570.31;7297184;39;20077;31
2023/10/30 23:10:45;;;;;;;;;;;;;;;13.07;95.71;97563.28;7285197;39;19996;31
2023/10/30 23:16:06;;;;;;;;;;;;;;;13.05;95.13;97563.50;7296344;40;19992;31
2023/10/30 23:21:41;;;;;;;;;;;;;;;13.02;95.57;97565.81;7286233;40;20011;31
2023/10/30 23:27:16;;;;;;;;;;;;;;;12.98;95.37;97578.13;7252895;40;20090;31
2023/10/30 23:32:51;;;;;;;;;;;;;;;12.92;95.05;97569.00;7237613;40;20082;31
2023/10/30 23:38:27;;;;;;;;;;;;;;;12.82;93.68;97597.59;7191918;40;19998;31
2023/10/30 23:43:47;;;;;;;;;;;;;;;12.74;94.12;97587.03;7139207;40;20085;31
2023/10/30 23:49:22;;;;;;;;;;;;;;;12.66;93.37;97593.56;7147034;40;19994;31
2023/10/30 23:54:59;;;;;;;;;;;;;;;12.67;93.60;97594.41;7185912;40;20008;31
